Airfield :
LOGIN :

Register | Disclaimer

   EN    FR    IT 

 










Legend :    VFR   Marginal VFR   IFR   Intensive IFR   Very Intensive IFR
Visi :
Ceiling :
>= 8 km
>= 3000ft
5 to 8 km
1000 to 3000 ft
1500m to 5 km
500 to 1000 ft
800 to 1500m
200 to 500 ft
< 800m
< 200 ft
Symbols :   Thunderstorms  Fog  Heavy snow  Heavy precipitations  Wind > 20 kt
SIGMETs :     Misc.  Thunderstorms  Icing  Turbulence  Mountain Waves  Volcanic Ashes






- Airport Elevation : 10 ft
- IATA code : AAL


EKYT - Aalborg

CURRENT METAR :
  • 211520Z AUTO 09012KT 9999 NCD 23/07 Q1017

EXPIRED METARs :
  • 211450Z AUTO 09013KT 9999 FEW057/// 23/07 Q1017
  • 211443Z 09013KT CAVOK 23/07 Q1017
  • 211420Z AUTO 09014KT 060V120 9999 NCD 22/07 Q1017
  • 211350Z AUTO 09014KT 9999 NCD 22/08 Q1017
  • 211320Z AUTO 09013KT 060V120 9999 NCD 22/08 Q1017
  • 211250Z AUTO 09013KT 9999 NCD 22/08 Q1018
  • 211220Z AUTO 09015KT 9999 NCD 21/08 Q1018
  • 211203Z 09015KT CAVOK 21/08 Q1018
  • 211150Z AUTO 09014KT 9999 NCD 21/09 Q1018
  • 211120Z AUTO 08013KT 9999 NCD 20/09 Q1018

TAF TAF EKYT
Valid from the 21 at 15:00 until the 22 at 15:00 UTC


211430Z 2115/2215 09014KT 9999 FEW050
TEMPO 2205/2210 08012G22KT
TEMPO 2211/2215 10015G30KT



MET'MAP, your aeronautical weather chart ! - Copyright ORBIFLY December 2007 - Disclaimer

ORBIFLY MET'MAP TEAM :

Programming & Development : Alexandra Zaïnal
Original concept : Baudouin d'Aumeries
Technical & hardware support : Manuel Goepfert
Assistance : Marc-Olivier Méhu




SOURCES & CREDITS :

   NOAA